• Join FlightAware (Why Join?)
  • Login
  • US Flag 
12:23PM EDT


 

Airport Tracker/Info


-or-


 

Live Flight TrackerFlight Track Log ✈ SKW6306 ✈ 29-Jun-2013 ✈ CYXE - KDEN

Flight Track Log - Related Links

Times and Time Zones

All times are in EDT time to prevent confusion due to time zone crossing. See the SKW6306 flight status page for this flight to view local times or setup timezone preferences in your user account.

Time Position Orientation Groundspeed Altitude Reporting Facility
EDT Latitude Longitude Course Direction KTS MPH feet Rate Location/Type
05:28PM 52.1500 -106.6500 198° South 180 207 3,400  Level Winnipeg Center
05:29PM 52.1000 -106.6333 168° South 220 253 5,900 1,980 Climbing Winnipeg Center
05:30PM 51.8162 -106.8912 199° South  Level FlightAware Approximate
05:30PM 52.0167 -106.6667 194° South 280 322 7,400  Level Winnipeg Center
05:31PM 51.6974 -106.9514 197° South  Level FlightAware Approximate
05:31PM 51.9500 -106.7167 205° Southwest 300 345 9,600  Level Winnipeg Center
05:32PM 51.5799 -107.0108 198° South  Level FlightAware Approximate
05:32PM 51.8667 -106.7667 200° South 310 357 11,000  Level Winnipeg Center
05:33PM 51.4617 -107.0739 198° South  Level FlightAware Approximate
05:33PM 51.7667 -106.8333 202° Southwest 330 380 12,700  Level Winnipeg Center
05:34PM 51.6833 -106.8667 194° South 340 391 14,300 1,500 Climbing Winnipeg Center
05:35PM 51.6000 -106.9333 206° Southwest 350 403 15,700 1,320 Climbing Winnipeg Center
05:36PM 51.5000 -106.9833 197° South 360 414 17,000 1,140 Climbing Winnipeg Center
05:37PM 51.4167 -107.0500 207° Southwest 360 414 18,000 960 Climbing Winnipeg Center
05:38PM 51.3167 -107.1167 203° Southwest 370 426 19,000 960 Climbing Winnipeg Center
05:39PM 51.2167 -107.1667 197° South 380 437 20,000 1,020 Climbing Winnipeg Center
05:40PM 51.1167 -107.2333 203° Southwest 380 437 21,100 900 Climbing Winnipeg Center
05:41PM 51.0167 -107.2833 197° South 390 449 21,800 660 Climbing Winnipeg Center
05:42PM 50.9167 -107.3500 203° Southwest 390 449 22,500 720 Climbing Winnipeg Center
05:43PM 50.8167 -107.4333 208° Southwest 400 460 23,300 780 Climbing Winnipeg Center
05:44PM 50.7000 -107.4833 195° South 400 460 24,100 600 Climbing Winnipeg Center
05:45PM 50.6000 -107.5333 198° South 410 472 24,600 540 Climbing Winnipeg Center
05:46PM 50.5000 -107.5833 198° South 410 472 25,200 600 Climbing Winnipeg Center
05:47PM 50.3667 -107.6667 202° Southwest 410 472 25,900 540 Climbing Winnipeg Center
05:48PM 50.2833 -107.7333 207° Southwest 420 483 26,300 420 Climbing Winnipeg Center
05:49PM 50.1500 -107.7167 175° South 430 495 26,800 360 Climbing Winnipeg Center
05:50PM 50.0167 -107.7500 189° South 430 495 27,100 300 Climbing Winnipeg Center
05:51PM 49.9000 -107.7667 185° South 440 506 27,500 420 Climbing Winnipeg Center
05:52PM 49.7833 -107.7667 180° South 440 506 28,000 480 Climbing Winnipeg Center
05:53PM 49.6667 -107.8000 190° South 440 506 28,500 300 Climbing Winnipeg Center
05:54PM 49.5500 -107.8000 180° South 440 506 28,700 300 Climbing Winnipeg Center
05:55PM 49.4333 -107.8167 185° South 440 506 29,200 480 Climbing Winnipeg Center
05:56PM 49.3000 -107.8500 189° South 440 506 29,700 360 Climbing Winnipeg Center
05:57PM 49.1833 -107.8500 180° South 440 506 30,000 300 Climbing Winnipeg Center
05:58PM 49.0667 -107.8667 185° South 430 495 30,400 300 Climbing Winnipeg Center
05:59PM 48.9500 -107.8667 180° South 430 495 30,700 360 Climbing Winnipeg Center
06:00PM 48.8167 -107.8833 185° South 440 506 31,200 360 Climbing Winnipeg Center
06:01PM 48.7000 -107.8833 180° South 430 495 31,500 360 Climbing Winnipeg Center
06:02PM 48.5833 -107.9000 185° South 430 495 32,000 360 Climbing Winnipeg Center
06:03PM 48.4500 -107.9333 189° South 430 495 32,300 240 Climbing Winnipeg Center
06:04PM 48.3500 -107.9333 180° South 430 495 32,500 180 Climbing Winnipeg Center
06:05PM 48.2231 -107.9236 177° South 432 497 32,800 180 Climbing Salt Lake Center
06:06PM 48.1031 -107.9358 184° South 433 498 33,000 60 Climbing Salt Lake Center
06:07PM 47.9828 -107.9494 184° South 433 498 33,000  Level Salt Lake Center
06:08PM 47.8589 -107.9631 184° South 439 505 33,000  Level Salt Lake Center
06:09PM 47.7361 -107.9758 184° South 442 509 33,000  Level Salt Lake Center
06:10PM 47.6108 -107.9892 184° South 446 513 33,000  Level Salt Lake Center
06:11PM 47.4850 -107.9642 172° South 456 525 33,000  Level Salt Lake Center
06:12PM 47.3347 -107.9172 168° South 461 531 33,000  Level Salt Lake Center
06:13PM 47.2111 -107.8789 168° South 458 527 33,000  Level Salt Lake Center
06:14PM 47.1039 -107.8453 168° South 455 524 33,000  Level Salt Lake Center
06:15PM 46.9542 -107.7983 168° South 456 525 33,000  Level Salt Lake Center
06:16PM 46.8317 -107.7594 168° South 456 525 33,000  Level Salt Lake Center
06:17PM 46.7100 -107.7225 168° South 451 519 33,000  Level Salt Lake Center
06:18PM 46.5714 -107.6772 167° South 451 519 33,000  Level Salt Lake Center
06:19PM 46.4494 -107.6403 168° South 459 528 33,000  Level Salt Lake Center
06:20PM 46.3272 -107.6042 168° South 451 519 33,000  Level Salt Lake Center
06:21PM 46.1961 -107.5639 168° South 451 519 33,000  Level Salt Lake Center
06:22PM 46.0736 -107.5264 168° South 450 518 33,000  Level Salt Lake Center
06:24PM 45.9422 -107.4869 168° South 450 518 33,000  Level Salt Lake Center
06:25PM 45.8197 -107.4511 168° South 454 522 33,000  Level Salt Lake Center
06:26PM 45.6989 -107.4158 168° South 449 517 33,000  Level Salt Lake Center
06:27PM 45.5667 -107.3764 168° South 450 518 33,000  Level Salt Lake Center
06:28PM 45.4458 -107.3406 168° South 447 514 33,000  Level Salt Lake Center
06:29PM 45.3117 -107.3331 178° South 445 512 33,000  Level Salt Lake Center
06:30PM 45.1961 -107.3378 182° South 438 504 33,000  Level Salt Lake Center
06:31PM 45.0783 -107.3414 181° South 437 503 33,000  Level Salt Lake Center
06:32PM 44.9431 -107.3472 182° South 437 503 33,000  Level Salt Lake Center
06:33PM 44.8261 -107.3536 182° South 437 503 33,000  Level Salt Lake Center
06:34PM 44.6911 -107.3581 181° South 436 502 33,000  Level Salt Lake Center
06:35PM 44.5753 -107.3636 182° South 435 501 33,000  Level Salt Lake Center
06:36PM 44.4428 -107.3689 182° South 434 499 33,000  Level Salt Lake Center
06:37PM 44.3275 -107.3725 181° South 433 498 33,000  Level Salt Lake Center
06:38PM 44.1964 -107.3558 175° South 437 503 33,000  Level Salt Lake Center
06:39PM 44.0833 -107.3081 163° South 443 510 33,000  Level Salt Lake Center
06:40PM 43.9689 -107.2589 163° South 440 506 33,000  Level Salt Lake Center
06:41PM 43.8378 -107.2053 164° South 440 506 33,000  Level Salt Lake Center
06:42PM 43.7258 -107.1583 163° South 439 505 33,000  Level Salt Lake Center
06:43PM 43.5942 -107.1036 163° South 442 509 33,000  Level Salt Lake Center
06:44PM 43.4814 -107.0564 163° South 443 510 33,000  Level Salt Lake Center
06:45PM 43.3686 -107.0094 163° South 443 510 33,000  Level Salt Lake Center
06:46PM 43.2389 -106.9564 163° South 438 504 33,000  Level Salt Lake Center
06:47PM 43.1253 -106.9100 163° South 443 510 33,000  Level Salt Lake Center
06:48PM 42.9928 -106.8553 163° South 444 511 33,000  Level Salt Lake Center
06:49PM 42.8597 -106.8006 163° South 444 511 33,000  Level Denver Center
06:50PM 42.7244 -106.7475 164° South 448 516 33,000  Level Denver Center
06:51PM 42.6108 -106.7017 163° South 448 516 33,000  Level Denver Center
06:52PM 42.4789 -106.6481 163° South 444 511 33,000  Level Denver Center
06:53PM 42.3650 -106.6025 164° South 446 513 33,000  Level Denver Center
06:55PM 42.2553 -106.5319 155° Southeast 456 525 33,000  Level Denver Center
06:56PM 42.1344 -106.4411 151° Southeast 449 517 33,000  Level Denver Center
06:57PM 42.0294 -106.3614 151° Southeast 452 520 33,000  Level Denver Center
06:58PM 41.9056 -106.2700 151° Southeast 455 524 33,000 -120 Level Denver Center
06:59PM 41.7983 -106.1894 151° Southeast 459 528 32,800 -360 Descending Denver Center
07:00PM 41.6700 -106.0953 151° Southeast 469 540 32,300 -540 Descending Denver Center
07:01PM 41.5553 -106.0108 151° Southeast 486 559 31,800 -540 Descending Denver Center
07:02PM 41.4214 -105.9114 151° Southeast 492 566 31,200 -420 Descending Denver Center
07:03PM 41.3039 -105.8258 151° Southeast 501 577 31,000 -120 Descending Denver Center
07:04PM 41.1681 -105.7261 151° Southeast 500 575 31,000 -60 Level Denver Center
07:05PM 41.0533 -105.6411 151° Southeast 496 571 30,900 -1,140 Descending Denver Center
07:06PM 40.9239 -105.5522 153° Southeast 495 570 28,700 -2,100 Descending Denver Center
07:07PM 40.7978 -105.4989 162° South 476 548 26,700 -2,100 Descending Denver Center
07:08PM 40.6789 -105.4314 157° South 468 539 24,500 -2,040 Descending Denver Center
07:09PM 40.5789 -105.3269 142° Southeast 459 528 22,500 -1,740 Descending Denver Center
07:10PM 40.4775 -105.2244 142° Southeast 425 489 21,000 -1,500 Descending Denver Center
07:11PM 40.3850 -105.1522 149° Southeast 388 447 19,200 -1,800 Descending Denver Center
07:12PM 40.2719 -105.0608 148° Southeast 363 418 17,000 -1,920 Descending Denver Center
07:13PM 40.1889 -104.9953 149° Southeast 349 402 15,300 -1,320 Descending Denver Center
07:14PM 40.1125 -104.9331 148° Southeast 327 376 14,300 -1,020 Descending Denver Center
07:15PM 40.0308 -104.8614 146° Southeast 327 376 13,200 -1,140 Descending Denver Center
07:16PM 39.9631 -104.7908 141° Southeast 314 361 12,000 -1,080 Descending Denver Center
07:17PM 39.9514 -104.6872 98° East 292 336 11,000 -540 Descending Denver Center
07:18PM 39.9531 -104.5881 89° East 255 293 11,000 -480 Level Denver Center
07:19PM 39.9428 -104.4969 98° East 253 291 10,100 -900 Descending Denver Center